Time;durP1;ratioP1;P1;durP2;ratioP2;P2;SDS_P1;SDS_P2;PMS_P1;PMS_P2;Temp;Humidity;BMP_temperature;BMP_pressure;BME280_temperature;BME280_humidity;BME280_pressure;Samples;Min_cycle;Max_cycle;Signal;HPM_P1;HPM_P2
2022/09/03 00:02:27;;;;;;;3.33;0.85;;;;;;;;;;5039913;28;20095;-59
2022/09/03 00:05:12;;;;;;;4.63;0.90;;;;;;;;;;5053694;28;20041;-59
2022/09/03 00:07:47;;;;;;;3.65;1.00;;;;;;;;;;5053054;28;20036;-59
2022/09/03 00:10:21;;;;;;;1.10;0.77;;;;;;;;;;5053325;28;20044;-59
2022/09/03 00:12:48;;;;;;;3.78;0.90;;;;;;;;;;5053640;28;20035;-59
2022/09/03 00:15:17;;;;;;;4.35;0.93;;;;;;;;;;5053126;28;20044;-59
2022/09/03 00:17:58;;;;;;;3.47;1.00;;;;;;;;;;5053467;28;20444;-60
2022/09/03 00:20:30;;;;;;;1.90;0.80;;;;;;;;;;5053039;28;20044;-60
2022/09/03 00:23:00;;;;;;;2.15;0.60;;;;;;;;;;5053064;28;20037;-60
2022/09/03 00:25:34;;;;;;;3.53;0.68;;;;;;;;;;5049786;28;20041;-60
2022/09/03 00:28:02;;;;;;;2.88;0.98;;;;;;;;;;5033263;28;20425;-59
2022/09/03 00:30:29;;;;;;;1.92;0.70;;;;;;;;;;5032900;28;20044;-60
2022/09/03 00:33:05;;;;;;;1.45;0.80;;;;;;;;;;5033236;28;20484;-59
2022/09/03 00:35:35;;;;;;;3.28;0.90;;;;;;;;;;5033354;28;20042;-58
2022/09/03 00:38:01;;;;;;;3.35;0.73;;;;;;;;;;5032472;28;20034;-60
2022/09/03 00:40:39;;;;;;;1.52;0.52;;;;;;;;;;5033221;28;20772;-59
2022/09/03 00:43:31;;;;;;;5.05;0.98;;;;;;;;;;5032964;28;20041;-59
2022/09/03 00:46:04;;;;;;;3.38;0.90;;;;;;;;;;5004314;28;20125;-59
2022/09/03 00:48:33;;;;;;;2.53;0.60;;;;;;;;;;5033077;28;20099;-59
2022/09/03 00:51:05;;;;;;;1.83;1.23;;;;;;;;;;5032924;28;20396;-59
2022/09/03 00:53:31;;;;;;;3.72;0.68;;;;;;;;;;5032676;28;20083;-59
2022/09/03 00:56:00;;;;;;;5.90;0.73;;;;;;;;;;5033059;28;20069;-59
2022/09/03 00:58:42;;;;;;;1.52;0.82;;;;;;;;;;5032885;28;20069;-59
2022/09/03 01:01:20;;;;;;;0.80;0.60;;;;;;;;;;5032407;28;20041;-59
2022/09/03 01:03:57;;;;;;;2.53;0.70;;;;;;;;;;5050155;28;20040;-59
2022/09/03 01:06:35;;;;;;;6.03;0.80;;;;;;;;;;5051669;28;20053;-59
2022/09/03 01:09:14;;;;;;;1.08;0.70;;;;;;;;;;5052274;28;20053;-60
2022/09/03 01:11:58;;;;;;;2.00;0.75;;;;;;;;;;5052670;28;20095;-59
2022/09/03 01:14:39;;;;;;;1.25;0.60;;;;;;;;;;5052139;28;20041;-59
2022/09/03 01:17:11;;;;;;;2.83;0.90;;;;;;;;;;5052091;28;20086;-59
2022/09/03 01:19:47;;;;;;;4.47;0.90;;;;;;;;;;5052408;28;20041;-58
2022/09/03 01:22:32;;;;;;;2.10;0.60;;;;;;;;;;5052000;28;20052;-60
2022/09/03 01:25:16;;;;;;;3.83;1.00;;;;;;;;;;5052099;28;20620;-60
2022/09/03 01:27:42;;;;;;;4.78;0.70;;;;;;;;;;5032021;28;20037;-59
2022/09/03 01:30:17;;;;;;;4.30;0.88;;;;;;;;;;5031882;28;20534;-59
2022/09/03 01:33:03;;;;;;;3.28;0.80;;;;;;;;;;5014160;28;20204;-59
2022/09/03 01:35:33;;;;;;;6.22;0.70;;;;;;;;;;5032148;28;20448;-59
2022/09/03 01:38:16;;;;;;;1.40;0.60;;;;;;;;;;5031614;28;20080;-60
2022/09/03 01:40:42;;;;;;;2.15;0.68;;;;;;;;;;5031748;28;20041;-59
2022/09/03 01:43:23;;;;;;;1.98;0.68;;;;;;;;;;5031983;28;20069;-60
2022/09/03 01:45:58;;;;;;;3.17;0.77;;;;;;;;;;5031703;28;20045;-60
2022/09/03 01:48:24;;;;;;;1.65;0.50;;;;;;;;;;5031451;28;20045;-59
2022/09/03 01:50:56;;;;;;;2.60;0.63;;;;;;;;;;5031344;28;20047;-59
2022/09/03 01:53:35;;;;;;;2.08;0.60;;;;;;;;;;5013896;28;20111;-60
2022/09/03 01:56:12;;;;;;;2.13;0.70;;;;;;;;;;5031722;28;20048;-59
2022/09/03 01:58:39;;;;;;;3.90;0.70;;;;;;;;;;5031284;28;20038;-59
2022/09/03 02:01:09;;;;;;;0.60;0.60;;;;;;;;;;5031650;28;20112;-59
2022/09/03 02:03:39;;;;;;;1.90;0.52;;;;;;;;;;5046816;28;20098;-59
2022/09/03 02:06:07;;;;;;;1.45;0.60;;;;;;;;;;5050829;28;20045;-59
2022/09/03 02:08:33;;;;;;;1.17;0.50;;;;;;;;;;5051155;28;20518;-60
2022/09/03 02:11:01;;;;;;;1.42;0.60;;;;;;;;;;5051175;28;20041;-59
2022/09/03 02:13:30;;;;;;;3.00;0.70;;;;;;;;;;5050855;28;20053;-58
2022/09/03 02:15:57;;;;;;;1.63;0.60;;;;;;;;;;5051472;28;20428;-60
2022/09/03 02:18:25;;;;;;;2.20;0.68;;;;;;;;;;5050526;28;20076;-59
2022/09/03 02:20:53;;;;;;;2.28;0.80;;;;;;;;;;5050664;28;20051;-60
2022/09/03 02:23:19;;;;;;;1.48;0.60;;;;;;;;;;5051097;28;20049;-57
2022/09/03 02:25:50;;;;;;;1.25;0.70;;;;;;;;;;5044971;28;20095;-59
2022/09/03 02:28:16;;;;;;;0.80;0.57;;;;;;;;;;5030469;28;20179;-60
2022/09/03 02:30:42;;;;;;;5.35;0.65;;;;;;;;;;5031211;28;20414;-60
2022/09/03 02:33:08;;;;;;;0.88;0.60;;;;;;;;;;5030456;28;20049;-60
2022/09/03 02:35:34;;;;;;;2.28;0.63;;;;;;;;;;5030542;28;20460;-59
2022/09/03 02:38:20;;;;;;;1.30;0.70;;;;;;;;;;5030810;28;20080;-60
2022/09/03 02:40:46;;;;;;;1.63;0.60;;;;;;;;;;5030623;28;20041;-60
2022/09/03 02:43:25;;;;;;;4.07;1.08;;;;;;;;;;5029900;28;20085;-60
2022/09/03 02:45:53;;;;;;;3.42;0.80;;;;;;;;;;5030740;28;20100;-60
2022/09/03 02:48:22;;;;;;;1.40;0.60;;;;;;;;;;5030700;28;20052;-59
2022/09/03 02:50:48;;;;;;;2.17;0.60;;;;;;;;;;5030589;28;20041;-60
2022/09/03 02:53:14;;;;;;;1.75;0.77;;;;;;;;;;5030781;28;20476;-59
2022/09/03 02:55:40;;;;;;;1.38;0.70;;;;;;;;;;5030980;28;20044;-59
2022/09/03 02:58:06;;;;;;;2.10;0.60;;;;;;;;;;5030252;28;20049;-59
2022/09/03 03:00:34;;;;;;;2.35;0.70;;;;;;;;;;5030896;28;20038;-59
2022/09/03 03:03:01;;;;;;;1.33;0.57;;;;;;;;;;5041844;28;20047;-60
2022/09/03 03:05:39;;;;;;;1.98;0.77;;;;;;;;;;5050100;28;20033;-60
2022/09/03 03:08:05;;;;;;;3.38;0.60;;;;;;;;;;5050117;28;20044;-59
2022/09/03 03:10:31;;;;;;;1.17;0.77;;;;;;;;;;5050508;28;20467;-59
2022/09/03 03:12:57;;;;;;;1.27;0.70;;;;;;;;;;5049786;28;20087;-59
2022/09/03 03:15:23;;;;;;;1.60;0.70;;;;;;;;;;5032961;28;20044;-60
2022/09/03 03:17:49;;;;;;;3.08;0.65;;;;;;;;;;5050351;28;20037;-60
2022/09/03 03:20:15;;;;;;;1.20;0.63;;;;;;;;;;5050074;28;20456;-60
2022/09/03 03:22:41;;;;;;;1.27;0.70;;;;;;;;;;5050351;28;20384;-60
2022/09/03 03:25:08;;;;;;;4.25;0.70;;;;;;;;;;5049531;28;20037;-60
2022/09/03 03:27:40;;;;;;;1.42;0.90;;;;;;;;;;5030068;28;20232;-60
2022/09/03 03:30:08;;;;;;;1.77;0.80;;;;;;;;;;5033693;28;20049;-60
2022/09/03 03:32:35;;;;;;;4.38;1.45;;;;;;;;;;5034213;28;20049;-59
2022/09/03 03:35:01;;;;;;;1.85;0.90;;;;;;;;;;5033968;28;20041;-59
2022/09/03 03:37:27;;;;;;;0.80;0.70;;;;;;;;;;5034176;28;20055;-59
2022/09/03 03:39:53;;;;;;;2.17;0.70;;;;;;;;;;5034352;28;20117;-60
2022/09/03 03:42:19;;;;;;;1.10;1.00;;;;;;;;;;5033897;28;20146;-59
2022/09/03 03:44:45;;;;;;;2.28;0.60;;;;;;;;;;5034299;28;20048;-60
2022/09/03 03:47:11;;;;;;;2.80;0.70;;;;;;;;;;5033989;28;20131;-59
2022/09/03 03:49:37;;;;;;;2.67;0.90;;;;;;;;;;5033805;28;20049;-59
2022/09/03 03:52:03;;;;;;;0.82;0.70;;;;;;;;;;5034044;28;20140;-60
2022/09/03 03:54:30;;;;;;;2.60;0.70;;;;;;;;;;5033943;28;20087;-60
2022/09/03 03:56:56;;;;;;;1.10;0.65;;;;;;;;;;5033205;28;20053;-59
2022/09/03 03:59:22;;;;;;;1.27;0.73;;;;;;;;;;5034051;28;20089;-60
2022/09/03 04:01:49;;;;;;;1.83;0.70;;;;;;;;;;5035127;28;20124;-59
2022/09/03 04:04:15;;;;;;;2.60;0.70;;;;;;;;;;5053044;28;20045;-58
2022/09/03 04:06:41;;;;;;;2.30;0.70;;;;;;;;;;5053451;28;20090;-59
2022/09/03 04:09:07;;;;;;;2.83;0.80;;;;;;;;;;5053238;28;20130;-60
2022/09/03 04:11:33;;;;;;;3.72;0.80;;;;;;;;;;5053472;28;20052;-60
2022/09/03 04:13:59;;;;;;;1.48;0.80;;;;;;;;;;5053549;28;20094;-60
2022/09/03 04:16:26;;;;;;;2.03;0.70;;;;;;;;;;5053548;28;20044;-60
2022/09/03 04:18:56;;;;;;;3.83;0.80;;;;;;;;;;5053431;28;20033;-58
2022/09/03 04:21:27;;;;;;;1.17;0.70;;;;;;;;;;5053743;28;20041;-60
2022/09/03 04:23:53;;;;;;;2.17;0.73;;;;;;;;;;5035489;28;20076;-60
2022/09/03 04:26:24;;;;;;;1.63;0.80;;;;;;;;;;5041937;28;20149;-60
2022/09/03 04:28:50;;;;;;;1.88;0.70;;;;;;;;;;5033417;28;20124;-59
2022/09/03 04:31:17;;;;;;;2.25;0.73;;;;;;;;;;5015674;28;20060;-59
2022/09/03 04:33:43;;;;;;;1.70;0.75;;;;;;;;;;5032836;28;20068;-59
2022/09/03 04:36:09;;;;;;;2.83;0.70;;;;;;;;;;5033314;28;20065;-60
2022/09/03 04:38:36;;;;;;;3.17;0.85;;;;;;;;;;5033277;28;20038;-60
2022/09/03 04:41:03;;;;;;;4.45;0.90;;;;;;;;;;5031989;28;20149;-60
2022/09/03 04:43:29;;;;;;;7.90;1.20;;;;;;;;;;5033307;28;20081;-60
2022/09/03 04:45:57;;;;;;;2.97;0.82;;;;;;;;;;5032725;28;20049;-60
2022/09/03 04:48:23;;;;;;;1.92;0.80;;;;;;;;;;5032683;28;20042;-59
2022/09/03 04:50:49;;;;;;;4.15;1.17;;;;;;;;;;5032957;28;20041;-59
2022/09/03 04:53:15;;;;;;;2.50;0.88;;;;;;;;;;5032944;28;20080;-60
2022/09/03 04:55:41;;;;;;;2.35;1.05;;;;;;;;;;5032970;28;20087;-58
2022/09/03 04:58:07;;;;;;;2.42;0.90;;;;;;;;;;5032394;28;20160;-60
2022/09/03 05:00:35;;;;;;;2.08;0.88;;;;;;;;;;5032915;28;20048;-60
2022/09/03 05:03:03;;;;;;;3.70;0.90;;;;;;;;;;5043739;28;20041;-60
2022/09/03 05:05:29;;;;;;;3.25;1.15;;;;;;;;;;5052122;28;20049;-60
2022/09/03 05:08:02;;;;;;;2.72;0.95;;;;;;;;;;5051940;28;20044;-60
2022/09/03 05:10:28;;;;;;;;;;;;;;;;;;5052912;28;20149;-60
2022/09/03 05:13:01;;;;;;;1.45;1.17;;;;;;;;;;5052076;28;19921;-59
2022/09/03 05:15:27;;;;;;;1.98;0.93;;;;;;;;;;5052093;28;20037;-59
2022/09/03 05:17:57;;;;;;;2.85;0.70;;;;;;;;;;5052413;28;20037;-59
2022/09/03 05:20:24;;;;;;;3.45;0.90;;;;;;;;;;5052189;28;20399;-59
2022/09/03 05:22:50;;;;;;;1.73;1.27;;;;;;;;;;5033927;28;20041;-59
2022/09/03 05:25:16;;;;;;;1.20;0.93;;;;;;;;;;5050059;28;20075;-59
2022/09/03 05:27:42;;;;;;;2.58;1.00;;;;;;;;;;5031863;28;20041;-60
2022/09/03 05:30:09;;;;;;;2.58;1.30;;;;;;;;;;5031789;28;20041;-60
2022/09/03 05:32:35;;;;;;;4.00;1.17;;;;;;;;;;5032238;28;20376;-59
2022/09/03 05:35:01;;;;;;;4.22;1.00;;;;;;;;;;5031638;28;20041;-59
2022/09/03 05:37:27;;;;;;;1.50;1.02;;;;;;;;;;5031905;28;20115;-60
2022/09/03 05:39:53;;;;;;;1.52;0.90;;;;;;;;;;5032146;28;20037;-60
2022/09/03 05:42:20;;;;;;;2.25;1.10;;;;;;;;;;5031725;28;20330;-59
2022/09/03 05:44:48;;;;;;;1.95;1.13;;;;;;;;;;5032038;28;20045;-58
2022/09/03 05:47:15;;;;;;;1.98;1.13;;;;;;;;;;5031552;28;20060;-60
2022/09/03 05:49:41;;;;;;;3.35;1.42;;;;;;;;;;5031442;28;20045;-59
2022/09/03 05:52:08;;;;;;;1.30;1.20;;;;;;;;;;5030913;28;20046;-60
2022/09/03 05:54:35;;;;;;;4.22;1.33;;;;;;;;;;5031662;28;20046;-59
2022/09/03 05:57:01;;;;;;;4.50;1.25;;;;;;;;;;5031392;28;20045;-60
2022/09/03 05:59:27;;;;;;;2.70;1.33;;;;;;;;;;5032102;28;20038;-60
2022/09/03 06:01:53;;;;;;;1.27;0.98;;;;;;;;;;5015658;28;20049;-60
2022/09/03 06:04:19;;;;;;;1.23;1.00;;;;;;;;;;5051167;28;20123;-59
2022/09/03 06:06:46;;;;;;;4.80;1.55;;;;;;;;;;5051045;28;20385;-60
2022/09/03 06:09:14;;;;;;;3.25;1.10;;;;;;;;;;5051072;28;20069;-60
2022/09/03 06:11:41;;;;;;;2.25;1.10;;;;;;;;;;5051032;28;20064;-59
2022/09/03 06:14:08;;;;;;;4.53;1.10;;;;;;;;;;5051070;28;20088;-60
2022/09/03 06:16:36;;;;;;;5.40;1.10;;;;;;;;;;5051304;28;20045;-59
2022/09/03 06:19:06;;;;;;;1.80;1.30;;;;;;;;;;5050904;28;20125;-60
2022/09/03 06:21:32;;;;;;;3.67;1.23;;;;;;;;;;5051359;28;20446;-59
2022/09/03 06:23:58;;;;;;;2.65;1.20;;;;;;;;;;5051010;28;20052;-59
2022/09/03 06:26:27;;;;;;;2.90;1.38;;;;;;;;;;5039023;28;20057;-60
2022/09/03 06:28:53;;;;;;;3.25;1.55;;;;;;;;;;5013463;28;20045;-60
2022/09/03 06:31:20;;;;;;;2.00;1.48;;;;;;;;;;5031075;28;20249;-60
2022/09/03 06:33:46;;;;;;;3.25;1.20;;;;;;;;;;5030681;28;20033;-59
2022/09/03 06:36:14;;;;;;;3.38;1.20;;;;;;;;;;5031113;28;20376;-58
2022/09/03 06:38:40;;;;;;;2.00;1.30;;;;;;;;;;5030759;28;20085;-60
2022/09/03 06:41:07;;;;;;;2.92;1.40;;;;;;;;;;5030442;28;20063;-60
2022/09/03 06:43:35;;;;;;;1.80;1.30;;;;;;;;;;5030695;28;20080;-59
2022/09/03 06:46:02;;;;;;;2.40;1.27;;;;;;;;;;5030785;28;20139;-60
2022/09/03 06:48:29;;;;;;;3.47;1.42;;;;;;;;;;5030541;28;20041;-60
2022/09/03 06:51:06;;;;;;;2.55;1.20;;;;;;;;;;5012983;28;20055;-60
2022/09/03 06:53:34;;;;;;;2.22;1.30;;;;;;;;;;5030778;28;20123;-59
2022/09/03 06:56:01;;;;;;;4.45;1.20;;;;;;;;;;5030467;28;20641;-59
2022/09/03 06:58:31;;;;;;;5.40;1.30;;;;;;;;;;5030654;28;20048;-60
2022/09/03 07:01:11;;;;;;;2.88;1.40;;;;;;;;;;5030808;28;20091;-59
2022/09/03 07:03:38;;;;;;;4.95;1.30;;;;;;;;;;5045762;28;20048;-59
2022/09/03 07:06:05;;;;;;;2.70;1.33;;;;;;;;;;5050513;28;20484;-59
2022/09/03 07:08:32;;;;;;;2.42;1.30;;;;;;;;;;5050217;28;20057;-58
2022/09/03 07:11:08;;;;;;;2.88;1.17;;;;;;;;;;5050106;28;20048;-59
2022/09/03 07:13:42;;;;;;;3.00;1.42;;;;;;;;;;5050566;28;20106;-59
2022/09/03 07:16:09;;;;;;;2.58;1.73;;;;;;;;;;5050301;28;20063;-59
2022/09/03 07:18:35;;;;;;;3.00;1.40;;;;;;;;;;5050116;28;20159;-59
2022/09/03 07:21:03;;;;;;;1.25;0.95;;;;;;;;;;5050591;28;20044;-59
2022/09/03 07:23:29;;;;;;;2.63;1.30;;;;;;;;;;5050523;28;20045;-59
2022/09/03 07:25:56;;;;;;;5.97;1.50;;;;;;;;;;5042598;28;20413;-59
2022/09/03 07:28:23;;;;;;;6.85;1.20;;;;;;;;;;5030178;28;20045;-59
2022/09/03 07:30:50;;;;;;;6.05;1.25;;;;;;;;;;5030211;28;20037;-59
2022/09/03 07:33:17;;;;;;;2.05;1.00;;;;;;;;;;5029982;28;20042;-59
2022/09/03 07:35:43;;;;;;;3.65;1.40;;;;;;;;;;5030464;28;20038;-59
2022/09/03 07:38:10;;;;;;;2.75;1.10;;;;;;;;;;5030012;28;20045;-59
2022/09/03 07:40:38;;;;;;;3.92;1.10;;;;;;;;;;5029783;28;20041;-59
2022/09/03 07:43:04;;;;;;;1.98;1.30;;;;;;;;;;5030285;28;20112;-59
2022/09/03 07:45:31;;;;;;;1.75;1.10;;;;;;;;;;5030215;28;20053;-59
2022/09/03 07:47:58;;;;;;;2.90;1.40;;;;;;;;;;5011933;28;20063;-58
2022/09/03 07:50:24;;;;;;;1.70;1.10;;;;;;;;;;5030340;28;20034;-59
2022/09/03 07:52:55;;;;;;;2.50;1.08;;;;;;;;;;5030275;28;20041;-59
2022/09/03 07:55:22;;;;;;;2.92;1.05;;;;;;;;;;5029872;28;20102;-59
2022/09/03 07:57:48;;;;;;;1.38;1.02;;;;;;;;;;5030104;28;20041;-59
2022/09/03 08:00:14;;;;;;;1.77;1.25;;;;;;;;;;5030136;28;20481;-59
2022/09/03 08:02:40;;;;;;;4.55;1.20;;;;;;;;;;5037642;28;20083;-59
2022/09/03 08:05:06;;;;;;;3.53;1.73;;;;;;;;;;5049947;28;20037;-59
2022/09/03 08:07:32;;;;;;;2.72;1.20;;;;;;;;;;5031965;28;20041;-59
2022/09/03 08:10:00;;;;;;;2.20;1.30;;;;;;;;;;5049247;28;20142;-59
2022/09/03 08:12:26;;;;;;;2.72;1.10;;;;;;;;;;5049562;28;20052;-59
2022/09/03 08:14:53;;;;;;;3.10;1.10;;;;;;;;;;5031761;28;20049;-59
2022/09/03 08:17:19;;;;;;;1.70;1.23;;;;;;;;;;5052586;28;20047;-59
2022/09/03 08:19:45;;;;;;;2.00;1.25;;;;;;;;;;5053572;28;20356;-59
2022/09/03 08:22:11;;;;;;;3.53;1.10;;;;;;;;;;5053466;28;20572;-59
2022/09/03 08:24:38;;;;;;;4.15;1.20;;;;;;;;;;5053048;28;20045;-59
2022/09/03 08:27:04;;;;;;;2.13;0.95;;;;;;;;;;5036255;28;20045;-59
2022/09/03 08:29:30;;;;;;;1.63;0.98;;;;;;;;;;5033463;28;20397;-59
2022/09/03 08:31:56;;;;;;;1.63;1.00;;;;;;;;;;5014879;28;20041;-59
2022/09/03 08:34:23;;;;;;;2.22;1.00;;;;;;;;;;5033328;28;20092;-59
2022/09/03 08:36:49;;;;;;;2.00;1.10;;;;;;;;;;5033184;28;20037;-59
2022/09/03 08:39:15;;;;;;;3.72;1.10;;;;;;;;;;5032425;28;20111;-57
2022/09/03 08:41:50;;;;;;;3.25;1.10;;;;;;;;;;5032800;28;20136;-59
2022/09/03 08:44:16;;;;;;;1.30;1.00;;;;;;;;;;5032928;28;20037;-59
2022/09/03 08:47:01;;;;;;;2.67;0.95;;;;;;;;;;5031970;28;20041;-59
2022/09/03 08:49:31;;;;;;;4.00;1.20;;;;;;;;;;5032788;28;20053;-59
2022/09/03 08:52:00;;;;;;;1.23;1.08;;;;;;;;;;5032697;28;20095;-59
2022/09/03 08:54:29;;;;;;;3.88;1.88;;;;;;;;;;5032252;28;20041;-59
2022/09/03 08:56:56;;;;;;;1.63;1.02;;;;;;;;;;5032522;28;20037;-59
2022/09/03 08:59:22;;;;;;;4.13;1.20;;;;;;;;;;5015232;28;20450;-59
2022/09/03 09:01:55;;;;;;;7.90;2.22;;;;;;;;;;5033440;28;20033;-59
2022/09/03 09:04:40;;;;;;;3.00;1.20;;;;;;;;;;5052856;28;20476;-59
2022/09/03 09:07:17;;;;;;;6.63;1.60;;;;;;;;;;5034235;28;20045;-59
2022/09/03 09:09:43;;;;;;;11.32;1.85;;;;;;;;;;5052197;28;20051;-59
2022/09/03 09:12:27;;;;;;;1.52;1.20;;;;;;;;;;5052560;28;20045;-59
2022/09/03 09:15:32;;;;;;;1.83;1.10;;;;;;;;;;5052138;28;20254;-59
2022/09/03 09:18:00;;;;;;;5.78;1.50;;;;;;;;;;4951232;29;20090;-58
2022/09/03 09:20:32;;;;;;;79.57;10.50;;;;;;;;;;4951623;29;20047;-59
2022/09/03 09:23:03;;;;;;;75.55;8.25;;;;;;;;;;5003930;28;20526;-59
2022/09/03 09:25:31;;;;;;;43.25;3.97;;;;;;;;;;5048456;28;20053;-59
2022/09/03 09:28:01;;;;;;;31.88;3.90;;;;;;;;;;5031920;28;20614;-59
2022/09/03 09:30:30;;;;;;;107.05;8.82;;;;;;;;;;5031911;28;20045;-59
2022/09/03 09:32:57;;;;;;;155.63;17.75;;;;;;;;;;5032147;28;20080;-59
2022/09/03 09:35:23;;;;;;;2.85;1.10;;;;;;;;;;5032218;28;20041;-59
2022/09/03 09:37:54;;;;;;;63.92;6.00;;;;;;;;;;5013528;28;20052;-59
2022/09/03 09:40:24;;;;;;;3.42;1.10;;;;;;;;;;5032043;28;20378;-59
2022/09/03 09:42:51;;;;;;;3.17;0.90;;;;;;;;;;5031925;28;20116;-59
2022/09/03 09:45:18;;;;;;;3.20;1.23;;;;;;;;;;5013407;28;20385;-59
2022/09/03 09:47:46;;;;;;;6.78;1.05;;;;;;;;;;5031850;28;20045;-59
2022/09/03 09:50:17;;;;;;;10.82;1.95;;;;;;;;;;5031980;28;20090;-59
2022/09/03 09:52:44;;;;;;;34.00;3.90;;;;;;;;;;5031470;28;20060;-59
2022/09/03 09:55:14;;;;;;;7.32;1.50;;;;;;;;;;5031505;28;20046;-59
2022/09/03 09:57:41;;;;;;;6.50;1.35;;;;;;;;;;5031562;28;20688;-59
2022/09/03 10:00:12;;;;;;;86.00;5.60;;;;;;;;;;5031041;28;20045;-59
2022/09/03 10:02:58;;;;;;;5.73;1.10;;;;;;;;;;5039227;28;20082;-59
2022/09/03 10:05:39;;;;;;;3.85;1.17;;;;;;;;;;5051544;28;20278;-60
2022/09/03 10:08:06;;;;;;;4.45;1.10;;;;;;;;;;5050719;28;20068;-59
2022/09/03 10:10:51;;;;;;;1.05;0.88;;;;;;;;;;5051263;28;20087;-58
2022/09/03 10:13:30;;;;;;;5.45;1.25;;;;;;;;;;5051371;28;20045;-59
2022/09/03 10:16:04;;;;;;;4.82;1.05;;;;;;;;;;5050931;28;20479;-59
2022/09/03 10:18:40;;;;;;;2.05;0.82;;;;;;;;;;5051200;28;20049;-59
2022/09/03 10:21:09;;;;;;;3.53;0.77;;;;;;;;;;5051296;28;20044;-59
2022/09/03 10:23:55;;;;;;;7.43;0.93;;;;;;;;;;5032695;28;20037;-59
2022/09/03 10:26:29;;;;;;;4.85;1.00;;;;;;;;;;5039991;28;20051;-59
2022/09/03 10:28:57;;;;;;;1.27;0.70;;;;;;;;;;5030804;28;20044;-59
2022/09/03 10:31:30;;;;;;;3.33;1.02;;;;;;;;;;5031200;28;20102;-59
2022/09/03 10:34:16;;;;;;;3.00;1.15;;;;;;;;;;5030897;28;20071;-59
2022/09/03 10:37:05;;;;;;;4.75;0.93;;;;;;;;;;5030686;28;20073;-59
2022/09/03 10:39:50;;;;;;;1.65;0.90;;;;;;;;;;5030424;28;20048;-59
2022/09/03 10:42:25;;;;;;;1.58;1.00;;;;;;;;;;5031038;28;20101;-60
2022/09/03 10:45:00;;;;;;;3.00;0.82;;;;;;;;;;5030658;28;20056;-59
2022/09/03 10:47:34;;;;;;;2.63;1.00;;;;;;;;;;5030959;28;20188;-59
2022/09/03 10:50:02;;;;;;;2.95;0.98;;;;;;;;;;5030704;28;20128;-59
2022/09/03 10:52:31;;;;;;;1.95;0.88;;;;;;;;;;5030411;28;20033;-59
2022/09/03 10:55:14;;;;;;;1.52;0.88;;;;;;;;;;5030762;28;20045;-59
2022/09/03 10:57:55;;;;;;;2.67;1.00;;;;;;;;;;5030678;28;20041;-59
2022/09/03 11:00:22;;;;;;;1.65;0.90;;;;;;;;;;5012695;28;20129;-59
2022/09/03 11:02:57;;;;;;;3.15;0.98;;;;;;;;;;5039898;28;20067;-59
2022/09/03 11:05:28;;;;;;;2.45;0.95;;;;;;;;;;5050666;28;20089;-59
2022/09/03 11:08:01;;;;;;;1.53;0.80;;;;;;;;;;5049877;28;20532;-59
2022/09/03 11:10:28;;;;;;;3.80;1.02;;;;;;;;;;5050354;28;20621;-58
2022/09/03 11:12:57;;;;;;;3.92;0.77;;;;;;;;;;5050583;28;20375;-59
2022/09/03 11:15:24;;;;;;;1.88;0.90;;;;;;;;;;5031992;28;20051;-59
2022/09/03 11:17:55;;;;;;;2.70;1.13;;;;;;;;;;5050442;28;20044;-59
2022/09/03 11:20:25;;;;;;;1.58;0.80;;;;;;;;;;5032375;28;20049;-59
2022/09/03 11:22:56;;;;;;;6.03;1.10;;;;;;;;;;5050127;28;20047;-59
2022/09/03 11:25:24;;;;;;;1.77;1.10;;;;;;;;;;5047734;28;20056;-59
2022/09/03 11:28:08;;;;;;;3.58;0.95;;;;;;;;;;5030319;28;20045;-59
2022/09/03 11:30:53;;;;;;;2.58;0.80;;;;;;;;;;5030576;28;20049;-59
2022/09/03 11:33:21;;;;;;;1.80;0.63;;;;;;;;;;5030308;28;20124;-59
2022/09/03 11:35:54;;;;;;;1.08;0.95;;;;;;;;;;5029781;28;20196;-59
2022/09/03 11:38:26;;;;;;;5.03;0.90;;;;;;;;;;5030325;28;20084;-59
2022/09/03 11:41:11;;;;;;;4.82;1.15;;;;;;;;;;5030315;28;20354;-59
2022/09/03 11:43:38;;;;;;;3.17;1.13;;;;;;;;;;5029883;28;20408;-58
2022/09/03 11:46:11;;;;;;;1.63;1.00;;;;;;;;;;5012132;28;20392;-59
2022/09/03 11:48:42;;;;;;;2.60;0.93;;;;;;;;;;5029923;28;20053;-59
2022/09/03 11:51:17;;;;;;;3.85;1.02;;;;;;;;;;5033403;28;20073;-59
2022/09/03 11:53:53;;;;;;;2.70;0.70;;;;;;;;;;5034075;28;20137;-59
2022/09/03 11:56:19;;;;;;;3.80;0.90;;;;;;;;;;5033930;28;20037;-59
2022/09/03 11:58:46;;;;;;;1.92;1.10;;;;;;;;;;5033382;28;20118;-59
2022/09/03 12:01:19;;;;;;;1.65;0.85;;;;;;;;;;5015919;28;20041;-59
2022/09/03 12:03:45;;;;;;;2.47;0.85;;;;;;;;;;5050656;28;20099;-59
2022/09/03 12:06:11;;;;;;;2.78;0.90;;;;;;;;;;5053326;28;20503;-59
2022/09/03 12:08:45;;;;;;;2.22;1.05;;;;;;;;;;5053256;28;20053;-59
2022/09/03 12:11:25;;;;;;;2.85;0.90;;;;;;;;;;5053676;28;20123;-59
2022/09/03 12:13:51;;;;;;;2.03;0.93;;;;;;;;;;5052998;28;20045;-58
2022/09/03 12:16:31;;;;;;;2.55;0.90;;;;;;;;;;5053656;28;20041;-59
2022/09/03 12:19:03;;;;;;;1.10;0.75;;;;;;;;;;5053517;28;20115;-59
2022/09/03 12:21:29;;;;;;;3.55;0.90;;;;;;;;;;5053114;28;20116;-59
2022/09/03 12:23:55;;;;;;;5.38;1.17;;;;;;;;;;5053584;28;20145;-59
2022/09/03 12:26:23;;;;;;;2.33;1.17;;;;;;;;;;5042042;28;20045;-60
2022/09/03 12:28:59;;;;;;;2.83;0.90;;;;;;;;;;5033192;28;20042;-60
2022/09/03 12:31:28;;;;;;;3.63;0.98;;;;;;;;;;5033372;28;20041;-59
2022/09/03 12:33:57;;;;;;;2.17;0.70;;;;;;;;;;5033428;28;20688;-60
2022/09/03 12:36:24;;;;;;;2.60;0.90;;;;;;;;;;5032975;28;20042;-59
2022/09/03 12:38:51;;;;;;;2.10;0.80;;;;;;;;;;5033060;28;20053;-59
2022/09/03 12:41:22;;;;;;;1.95;0.80;;;;;;;;;;5032898;28;20046;-60
2022/09/03 12:43:52;;;;;;;4.53;1.23;;;;;;;;;;5032690;28;20426;-59
2022/09/03 12:46:19;;;;;;;0.60;0.55;;;;;;;;;;5033039;28;20041;-59
2022/09/03 12:48:55;;;;;;;5.13;0.70;;;;;;;;;;5032916;28;20042;-59
2022/09/03 12:51:21;;;;;;;5.03;0.90;;;;;;;;;;5032855;28;20671;-59
2022/09/03 12:53:50;;;;;;;1.98;0.80;;;;;;;;;;5033068;28;20045;-59
2022/09/03 12:56:16;;;;;;;1.73;0.80;;;;;;;;;;5032895;28;20037;-59
2022/09/03 12:58:51;;;;;;;1.10;0.80;;;;;;;;;;5032559;28;20102;-60
2022/09/03 13:01:22;;;;;;;3.03;1.10;;;;;;;;;;5032121;28;20049;-60
2022/09/03 13:04:02;;;;;;;3.50;1.00;;;;;;;;;;5049908;28;20040;-59
2022/09/03 13:06:30;;;;;;;3.63;0.90;;;;;;;;;;5052089;28;20286;-60
2022/09/03 13:09:01;;;;;;;2.17;0.75;;;;;;;;;;5052243;28;20057;-59
2022/09/03 13:11:28;;;;;;;2.38;0.93;;;;;;;;;;5052754;28;20078;-59
2022/09/03 13:14:04;;;;;;;3.83;0.80;;;;;;;;;;5052280;28;20045;-60
2022/09/03 13:16:33;;;;;;;3.08;0.90;;;;;;;;;;5052454;28;20048;-59
2022/09/03 13:19:05;;;;;;;3.65;0.82;;;;;;;;;;5052364;28;20041;-59
2022/09/03 13:21:58;;;;;;;4.55;1.00;;;;;;;;;;5052485;28;20120;-60
2022/09/03 13:24:42;;;;;;;2.15;0.80;;;;;;;;;;5052544;28;20098;-60
2022/09/03 13:27:16;;;;;;;1.13;0.73;;;;;;;;;;5034329;28;20044;-59
2022/09/03 13:29:57;;;;;;;1.58;0.70;;;;;;;;;;5032459;28;20158;-59
2022/09/03 13:32:23;;;;;;;1.50;0.95;;;;;;;;;;5032305;28;20041;-59
2022/09/03 13:35:11;;;;;;;3.97;0.80;;;;;;;;;;5031728;28;20334;-59
2022/09/03 13:37:40;;;;;;;3.95;0.65;;;;;;;;;;5031996;28;20076;-59
2022/09/03 13:40:17;;;;;;;5.35;0.85;;;;;;;;;;5032133;28;20337;-59
2022/09/03 13:42:47;;;;;;;2.97;0.90;;;;;;;;;;5031858;28;20053;-59
2022/09/03 13:45:30;;;;;;;5.47;0.90;;;;;;;;;;5032231;28;20042;-60
2022/09/03 13:51:14;;;;;;;4.25;0.90;;;;;;;;;;5031314;28;20049;-59
2022/09/03 13:53:47;;;;;;;2.05;0.70;;;;;;;;;;5031604;28;20207;-60
2022/09/03 13:56:18;;;;;;;1.20;0.50;;;;;;;;;;5031493;28;20107;-59
2022/09/03 13:58:48;;;;;;;3.65;0.77;;;;;;;;;;5014023;28;20038;-59
2022/09/03 14:01:22;;;;;;;1.95;0.70;;;;;;;;;;5031765;28;20041;-59
2022/09/03 14:03:48;;;;;;;1.40;0.75;;;;;;;;;;5048664;28;20196;-59
2022/09/03 14:06:34;;;;;;;2.28;0.70;;;;;;;;;;5051254;28;20103;-60
2022/09/03 14:09:11;;;;;;;6.07;1.45;;;;;;;;;;5051349;28;20056;-60
2022/09/03 14:11:40;;;;;;;1.27;0.68;;;;;;;;;;5051154;28;20056;-59
2022/09/03 14:14:06;;;;;;;2.30;0.80;;;;;;;;;;5050477;28;20037;-60
2022/09/03 14:16:38;;;;;;;0.88;0.70;;;;;;;;;;5051310;28;20142;-59
2022/09/03 14:19:10;;;;;;;6.45;0.90;;;;;;;;;;5050618;28;20084;-59
2022/09/03 14:21:47;;;;;;;6.68;0.75;;;;;;;;;;5051348;28;20658;-60
2022/09/03 14:24:16;;;;;;;1.08;0.70;;;;;;;;;;5051311;28;20044;-59
2022/09/03 14:26:56;;;;;;;2.60;0.70;;;;;;;;;;5036933;28;20038;-60
2022/09/03 14:29:30;;;;;;;2.60;0.80;;;;;;;;;;5031301;28;20461;-60
2022/09/03 14:31:58;;;;;;;2.65;0.70;;;;;;;;;;5031326;28;20033;-59
2022/09/03 14:34:25;;;;;;;0.88;0.70;;;;;;;;;;5030637;28;20041;-59
2022/09/03 14:36:54;;;;;;;2.78;0.70;;;;;;;;;;5030588;28;20124;-58
2022/09/03 14:39:38;;;;;;;1.92;0.80;;;;;;;;;;5031064;28;20037;-60
2022/09/03 14:42:17;;;;;;;1.95;0.43;;;;;;;;;;5030733;28;20128;-60
2022/09/03 14:44:49;;;;;;;2.40;0.80;;;;;;;;;;5031051;28;20041;-58
2022/09/03 14:47:15;;;;;;;1.77;0.82;;;;;;;;;;5030677;28;20041;-60
2022/09/03 14:49:47;;;;;;;4.38;0.60;;;;;;;;;;5030226;28;20643;-59
2022/09/03 14:52:28;;;;;;;3.08;0.80;;;;;;;;;;5030334;28;20037;-59
2022/09/03 14:55:02;;;;;;;1.45;0.65;;;;;;;;;;5030806;28;20108;-59
2022/09/03 14:57:44;;;;;;;2.08;0.63;;;;;;;;;;5029983;28;20045;-58
2022/09/03 15:00:14;;;;;;;2.33;0.73;;;;;;;;;;5030580;28;20431;-59
2022/09/03 15:02:59;;;;;;;1.02;0.60;;;;;;;;;;5038182;28;20376;-59
2022/09/03 15:05:34;;;;;;;2.30;0.80;;;;;;;;;;5050173;28;20044;-59
2022/09/03 15:08:01;;;;;;;5.28;1.20;;;;;;;;;;5049682;28;20076;-59